sensor_id;sensor_type;location;lat;lon;timestamp;pressure;altitude;pressure_sealevel;temperature;humidity
4814;BME280;15375;48.540;9.268;2022-07-22T00:00:18;97705.06;;;19.40;98.48
4814;BME280;15375;48.540;9.268;2022-07-22T00:02:44;97700.97;;;19.08;100.00
4814;BME280;15375;48.540;9.268;2022-07-22T00:05:09;97697.34;;;18.66;100.00
4814;BME280;15375;48.540;9.268;2022-07-22T00:07:37;97724.06;;;18.69;100.00
4814;BME280;15375;48.540;9.268;2022-07-22T00:10:04;97722.97;;;18.84;100.00
4814;BME280;15375;48.540;9.268;2022-07-22T00:12:30;97702.88;;;18.66;100.00
4814;BME280;15375;48.540;9.268;2022-07-22T00:14:55;97695.50;;;18.90;100.00
4814;BME280;15375;48.540;9.268;2022-07-22T00:17:21;97699.66;;;18.67;100.00
4814;BME280;15375;48.540;9.268;2022-07-22T00:19:46;97700.16;;;18.48;100.00
4814;BME280;15375;48.540;9.268;2022-07-22T00:22:11;97683.09;;;18.22;100.00
4814;BME280;15375;48.540;9.268;2022-07-22T00:24:37;97692.28;;;18.19;100.00
4814;BME280;15375;48.540;9.268;2022-07-22T00:27:02;97706.41;;;18.30;100.00
4814;BME280;15375;48.540;9.268;2022-07-22T00:29:28;97702.25;;;18.25;100.00
4814;BME280;15375;48.540;9.268;2022-07-22T00:31:53;97691.53;;;18.36;100.00
4814;BME280;15375;48.540;9.268;2022-07-22T00:34:18;97709.31;;;18.44;100.00
4814;BME280;15375;48.540;9.268;2022-07-22T00:36:44;97682.47;;;18.27;100.00
4814;BME280;15375;48.540;9.268;2022-07-22T00:39:09;97672.81;;;18.31;100.00
4814;BME280;15375;48.540;9.268;2022-07-22T00:41:34;97712.41;;;18.65;100.00
4814;BME280;15375;48.540;9.268;2022-07-22T00:44:07;97704.28;;;18.52;100.00
4814;BME280;15375;48.540;9.268;2022-07-22T00:46:34;97678.00;;;18.20;100.00
4814;BME280;15375;48.540;9.268;2022-07-22T00:49:00;97687.97;;;18.36;100.00
4814;BME280;15375;48.540;9.268;2022-07-22T00:51:27;97681.72;;;18.63;100.00
4814;BME280;15375;48.540;9.268;2022-07-22T00:53:54;97674.75;;;18.94;100.00
4814;BME280;15375;48.540;9.268;2022-07-22T00:56:22;97696.63;;;19.16;100.00
4814;BME280;15375;48.540;9.268;2022-07-22T00:58:50;97710.28;;;19.38;100.00
4814;BME280;15375;48.540;9.268;2022-07-22T01:01:16;97688.72;;;19.00;99.83
4814;BME280;15375;48.540;9.268;2022-07-22T01:03:42;97685.66;;;18.98;100.00
4814;BME280;15375;48.540;9.268;2022-07-22T01:06:08;97701.00;;;18.81;100.00
4814;BME280;15375;48.540;9.268;2022-07-22T01:08:34;97679.41;;;18.34;100.00
4814;BME280;15375;48.540;9.268;2022-07-22T01:11:11;97698.91;;;18.48;100.00
4814;BME280;15375;48.540;9.268;2022-07-22T01:13:37;97703.03;;;18.71;100.00
4814;BME280;15375;48.540;9.268;2022-07-22T01:16:08;97683.56;;;18.57;100.00
4814;BME280;15375;48.540;9.268;2022-07-22T01:18:34;97685.41;;;18.60;100.00
4814;BME280;15375;48.540;9.268;2022-07-22T01:21:00;97680.47;;;18.36;100.00
4814;BME280;15375;48.540;9.268;2022-07-22T01:23:26;97695.97;;;18.34;100.00
4814;BME280;15375;48.540;9.268;2022-07-22T01:25:51;97681.03;;;17.95;100.00
4814;BME280;15375;48.540;9.268;2022-07-22T01:28:17;97673.88;;;18.16;100.00
4814;BME280;15375;48.540;9.268;2022-07-22T01:30:42;97688.91;;;18.42;100.00
4814;BME280;15375;48.540;9.268;2022-07-22T01:33:08;97689.56;;;18.55;100.00
4814;BME280;15375;48.540;9.268;2022-07-22T01:35:33;97661.94;;;18.55;100.00
4814;BME280;15375;48.540;9.268;2022-07-22T01:37:58;97690.28;;;18.74;100.00
4814;BME280;15375;48.540;9.268;2022-07-22T01:40:24;97696.75;;;18.62;100.00
4814;BME280;15375;48.540;9.268;2022-07-22T01:42:49;97679.56;;;18.21;100.00
4814;BME280;15375;48.540;9.268;2022-07-22T01:45:15;97680.03;;;18.47;100.00
4814;BME280;15375;48.540;9.268;2022-07-22T01:47:40;97670.22;;;18.55;100.00
4814;BME280;15375;48.540;9.268;2022-07-22T01:50:08;97684.00;;;18.73;100.00
4814;BME280;15375;48.540;9.268;2022-07-22T01:52:35;97677.84;;;18.78;100.00
4814;BME280;15375;48.540;9.268;2022-07-22T01:55:00;97692.47;;;18.52;100.00
4814;BME280;15375;48.540;9.268;2022-07-22T01:57:26;97670.59;;;17.81;100.00
4814;BME280;15375;48.540;9.268;2022-07-22T01:59:52;97695.00;;;17.92;100.00
4814;BME280;15375;48.540;9.268;2022-07-22T02:02:17;97693.78;;;18.02;100.00
4814;BME280;15375;48.540;9.268;2022-07-22T02:04:43;97688.72;;;17.82;100.00
4814;BME280;15375;48.540;9.268;2022-07-22T02:07:08;97685.66;;;17.49;100.00
4814;BME280;15375;48.540;9.268;2022-07-22T02:09:34;97691.25;;;17.58;100.00
4814;BME280;15375;48.540;9.268;2022-07-22T02:11:59;97673.69;;;17.92;100.00
4814;BME280;15375;48.540;9.268;2022-07-22T02:14:24;97694.56;;;18.38;100.00
4814;BME280;15375;48.540;9.268;2022-07-22T02:16:50;97684.91;;;18.16;100.00
4814;BME280;15375;48.540;9.268;2022-07-22T02:19:16;97677.69;;;17.91;100.00
4814;BME280;15375;48.540;9.268;2022-07-22T02:21:41;97687.03;;;17.94;100.00
4814;BME280;15375;48.540;9.268;2022-07-22T02:24:06;97668.69;;;17.60;100.00
4814;BME280;15375;48.540;9.268;2022-07-22T02:26:32;97664.72;;;17.21;100.00
4814;BME280;15375;48.540;9.268;2022-07-22T02:28:57;97687.13;;;17.32;100.00
4814;BME280;15375;48.540;9.268;2022-07-22T02:31:23;97674.91;;;17.42;100.00
4814;BME280;15375;48.540;9.268;2022-07-22T02:33:49;97675.06;;;17.39;100.00
4814;BME280;15375;48.540;9.268;2022-07-22T02:36:14;97671.22;;;17.36;100.00
4814;BME280;15375;48.540;9.268;2022-07-22T02:38:40;97682.28;;;17.14;100.00
4814;BME280;15375;48.540;9.268;2022-07-22T02:41:05;97680.13;;;17.09;100.00
4814;BME280;15375;48.540;9.268;2022-07-22T02:43:31;97668.00;;;17.07;100.00
4814;BME280;15375;48.540;9.268;2022-07-22T02:45:56;97658.66;;;17.04;100.00
4814;BME280;15375;48.540;9.268;2022-07-22T02:48:22;97670.34;;;17.08;100.00
4814;BME280;15375;48.540;9.268;2022-07-22T02:50:47;97660.91;;;16.97;100.00
4814;BME280;15375;48.540;9.268;2022-07-22T02:53:14;97664.84;;;17.17;100.00
4814;BME280;15375;48.540;9.268;2022-07-22T02:55:39;97664.50;;;17.06;100.00
4814;BME280;15375;48.540;9.268;2022-07-22T02:58:05;97681.13;;;17.24;100.00
4814;BME280;15375;48.540;9.268;2022-07-22T03:00:31;97655.41;;;17.28;100.00
4814;BME280;15375;48.540;9.268;2022-07-22T03:02:57;97662.44;;;17.59;100.00
4814;BME280;15375;48.540;9.268;2022-07-22T03:05:22;97659.03;;;17.55;100.00
4814;BME280;15375;48.540;9.268;2022-07-22T03:07:48;97678.59;;;17.48;100.00
4814;BME280;15375;48.540;9.268;2022-07-22T03:10:13;97662.59;;;17.25;100.00
4814;BME280;15375;48.540;9.268;2022-07-22T03:12:39;97660.13;;;17.27;100.00
4814;BME280;15375;48.540;9.268;2022-07-22T03:15:05;97683.72;;;17.19;100.00
4814;BME280;15375;48.540;9.268;2022-07-22T03:17:34;97665.50;;;17.21;100.00
4814;BME280;15375;48.540;9.268;2022-07-22T03:20:07;97683.03;;;17.37;100.00
4814;BME280;15375;48.540;9.268;2022-07-22T03:22:34;97689.34;;;17.15;100.00
4814;BME280;15375;48.540;9.268;2022-07-22T03:25:00;97671.03;;;17.00;100.00
4814;BME280;15375;48.540;9.268;2022-07-22T03:27:25;97657.00;;;16.76;100.00
4814;BME280;15375;48.540;9.268;2022-07-22T03:29:51;97671.44;;;17.20;100.00
4814;BME280;15375;48.540;9.268;2022-07-22T03:32:16;97682.16;;;17.18;100.00
4814;BME280;15375;48.540;9.268;2022-07-22T03:34:42;97676.75;;;17.45;100.00
4814;BME280;15375;48.540;9.268;2022-07-22T03:37:07;97669.97;;;17.37;100.00
4814;BME280;15375;48.540;9.268;2022-07-22T03:39:33;97692.78;;;17.29;100.00
4814;BME280;15375;48.540;9.268;2022-07-22T03:41:58;97670.69;;;17.19;100.00
4814;BME280;15375;48.540;9.268;2022-07-22T03:44:24;97677.38;;;17.09;100.00
4814;BME280;15375;48.540;9.268;2022-07-22T03:46:49;97674.34;;;16.86;100.00
4814;BME280;15375;48.540;9.268;2022-07-22T03:49:15;97634.97;;;16.54;100.00
4814;BME280;15375;48.540;9.268;2022-07-22T03:51:40;97690.22;;;16.82;100.00
4814;BME280;15375;48.540;9.268;2022-07-22T03:54:06;97672.88;;;16.72;100.00
4814;BME280;15375;48.540;9.268;2022-07-22T03:56:31;97672.59;;;17.01;100.00
4814;BME280;15375;48.540;9.268;2022-07-22T03:58:57;97681.38;;;17.17;100.00
4814;BME280;15375;48.540;9.268;2022-07-22T04:01:22;97680.84;;;17.32;100.00
4814;BME280;15375;48.540;9.268;2022-07-22T04:03:47;97679.91;;;17.56;100.00
4814;BME280;15375;48.540;9.268;2022-07-22T04:06:14;97684.06;;;17.70;100.00
4814;BME280;15375;48.540;9.268;2022-07-22T04:08:40;97697.78;;;17.92;100.00
4814;BME280;15375;48.540;9.268;2022-07-22T04:11:05;97682.91;;;18.16;100.00
4814;BME280;15375;48.540;9.268;2022-07-22T04:13:30;97670.91;;;17.83;100.00
4814;BME280;15375;48.540;9.268;2022-07-22T04:15:56;97694.47;;;17.66;100.00
4814;BME280;15375;48.540;9.268;2022-07-22T04:18:21;97689.44;;;17.64;100.00
4814;BME280;15375;48.540;9.268;2022-07-22T04:20:47;97674.56;;;17.80;100.00
4814;BME280;15375;48.540;9.268;2022-07-22T04:23:12;97677.38;;;17.98;100.00
4814;BME280;15375;48.540;9.268;2022-07-22T04:25:38;97686.44;;;18.08;100.00
4814;BME280;15375;48.540;9.268;2022-07-22T04:28:03;97653.31;;;18.17;100.00
4814;BME280;15375;48.540;9.268;2022-07-22T04:30:29;97670.19;;;18.46;100.00
4814;BME280;15375;48.540;9.268;2022-07-22T04:32:55;97658.97;;;18.40;100.00
4814;BME280;15375;48.540;9.268;2022-07-22T04:35:20;97679.72;;;18.45;100.00
4814;BME280;15375;48.540;9.268;2022-07-22T04:37:45;97669.38;;;18.91;100.00
4814;BME280;15375;48.540;9.268;2022-07-22T04:40:11;97674.84;;;19.18;97.47
4814;BME280;15375;48.540;9.268;2022-07-22T04:42:37;97652.63;;;19.69;92.40
4814;BME280;15375;48.540;9.268;2022-07-22T04:45:03;97663.66;;;20.02;88.48
4814;BME280;15375;48.540;9.268;2022-07-22T04:47:28;97670.00;;;20.17;88.30
4814;BME280;15375;48.540;9.268;2022-07-22T04:49:54;97659.66;;;20.03;88.78
4814;BME280;15375;48.540;9.268;2022-07-22T04:52:19;97660.88;;;20.02;90.10
4814;BME280;15375;48.540;9.268;2022-07-22T04:54:44;97664.28;;;19.97;90.01
4814;BME280;15375;48.540;9.268;2022-07-22T04:57:10;97661.44;;;19.91;90.48
4814;BME280;15375;48.540;9.268;2022-07-22T04:59:35;97669.44;;;20.37;88.22
4814;BME280;15375;48.540;9.268;2022-07-22T05:02:01;97669.06;;;20.44;87.52
4814;BME280;15375;48.540;9.268;2022-07-22T05:04:28;97684.22;;;20.86;83.77
4814;BME280;15375;48.540;9.268;2022-07-22T05:06:53;97647.69;;;20.73;83.86
4814;BME280;15375;48.540;9.268;2022-07-22T05:09:19;97679.78;;;20.65;85.29
4814;BME280;15375;48.540;9.268;2022-07-22T05:11:44;97666.22;;;20.67;86.48
4814;BME280;15375;48.540;9.268;2022-07-22T05:14:20;97671.41;;;21.04;84.38
4814;BME280;15375;48.540;9.268;2022-07-22T05:16:45;97667.47;;;21.25;83.21
4814;BME280;15375;48.540;9.268;2022-07-22T05:19:11;97669.56;;;21.30;84.20
4814;BME280;15375;48.540;9.268;2022-07-22T05:21:36;97646.69;;;21.35;82.21
4814;BME280;15375;48.540;9.268;2022-07-22T05:24:02;97661.91;;;21.74;82.38
4814;BME280;15375;48.540;9.268;2022-07-22T05:26:27;97649.53;;;22.56;76.29
4814;BME280;15375;48.540;9.268;2022-07-22T05:28:57;97656.13;;;23.72;69.88
4814;BME280;15375;48.540;9.268;2022-07-22T05:31:23;97662.28;;;23.87;69.73
4814;BME280;15375;48.540;9.268;2022-07-22T05:33:48;97669.56;;;24.27;67.53
4814;BME280;15375;48.540;9.268;2022-07-22T05:36:14;97655.63;;;24.27;66.69
4814;BME280;15375;48.540;9.268;2022-07-22T05:38:39;97658.41;;;25.53;63.13
4814;BME280;15375;48.540;9.268;2022-07-22T05:41:05;97661.09;;;27.36;55.92
4814;BME280;15375;48.540;9.268;2022-07-22T05:43:31;97665.16;;;27.35;55.32
4814;BME280;15375;48.540;9.268;2022-07-22T05:45:56;97645.25;;;27.44;55.08
4814;BME280;15375;48.540;9.268;2022-07-22T05:48:22;97665.22;;;29.25;50.34
4814;BME280;15375;48.540;9.268;2022-07-22T05:50:47;97645.22;;;30.39;47.65
4814;BME280;15375;48.540;9.268;2022-07-22T05:53:13;97661.69;;;30.48;46.88
4814;BME280;15375;48.540;9.268;2022-07-22T05:55:38;97661.59;;;30.74;46.66
4814;BME280;15375;48.540;9.268;2022-07-22T05:58:04;97636.69;;;30.91;45.42
4814;BME280;15375;48.540;9.268;2022-07-22T06:00:29;97670.16;;;32.34;43.54
4814;BME280;15375;48.540;9.268;2022-07-22T06:02:55;97674.72;;;32.88;41.90
4814;BME280;15375;48.540;9.268;2022-07-22T06:05:20;97671.13;;;32.80;41.01
4814;BME280;15375;48.540;9.268;2022-07-22T06:07:46;97673.19;;;33.68;39.80
4814;BME280;15375;48.540;9.268;2022-07-22T06:10:11;97667.09;;;34.02;40.11
4814;BME280;15375;48.540;9.268;2022-07-22T06:12:36;97654.25;;;34.31;38.43
4814;BME280;15375;48.540;9.268;2022-07-22T06:15:02;97683.13;;;34.85;38.62
4814;BME280;15375;48.540;9.268;2022-07-22T06:17:28;97649.41;;;35.04;37.75
4814;BME280;15375;48.540;9.268;2022-07-22T06:19:53;97672.38;;;35.72;36.17
4814;BME280;15375;48.540;9.268;2022-07-22T06:22:19;97663.78;;;35.80;36.17
4814;BME280;15375;48.540;9.268;2022-07-22T06:24:44;97661.22;;;35.92;35.73
4814;BME280;15375;48.540;9.268;2022-07-22T06:27:10;97672.06;;;35.85;36.73
4814;BME280;15375;48.540;9.268;2022-07-22T06:29:36;97621.19;;;34.81;37.61
4814;BME280;15375;48.540;9.268;2022-07-22T06:32:01;97681.97;;;34.40;38.36
4814;BME280;15375;48.540;9.268;2022-07-22T06:34:27;97665.88;;;34.50;38.47
4814;BME280;15375;48.540;9.268;2022-07-22T06:36:52;97679.31;;;34.90;38.01
4814;BME280;15375;48.540;9.268;2022-07-22T06:39:18;97648.72;;;35.45;36.84
4814;BME280;15375;48.540;9.268;2022-07-22T06:41:43;97669.03;;;33.77;39.55
4814;BME280;15375;48.540;9.268;2022-07-22T06:44:09;97659.84;;;34.46;38.58
4814;BME280;15375;48.540;9.268;2022-07-22T06:46:34;97675.25;;;32.79;41.29
4814;BME280;15375;48.540;9.268;2022-07-22T06:49:00;97659.25;;;32.38;42.34
4814;BME280;15375;48.540;9.268;2022-07-22T06:51:25;97657.34;;;32.33;41.98
4814;BME280;15375;48.540;9.268;2022-07-22T06:53:51;97647.88;;;32.23;41.81
4814;BME280;15375;48.540;9.268;2022-07-22T06:56:16;97656.41;;;31.12;44.20
4814;BME280;15375;48.540;9.268;2022-07-22T06:58:41;97647.50;;;30.27;46.05
4814;BME280;15375;48.540;9.268;2022-07-22T07:01:07;97655.59;;;29.79;47.35
4814;BME280;15375;48.540;9.268;2022-07-22T07:03:33;97661.22;;;29.02;49.81
4814;BME280;15375;48.540;9.268;2022-07-22T07:05:58;97651.03;;;27.52;53.12
4814;BME280;15375;48.540;9.268;2022-07-22T07:08:23;97648.38;;;27.65;54.68
4814;BME280;15375;48.540;9.268;2022-07-22T07:10:49;97644.69;;;27.75;54.16
4814;BME280;15375;48.540;9.268;2022-07-22T07:13:15;97631.78;;;27.91;53.32
4814;BME280;15375;48.540;9.268;2022-07-22T07:15:40;97619.34;;;27.62;54.46
4814;BME280;15375;48.540;9.268;2022-07-22T07:18:06;97644.69;;;28.42;52.99
4814;BME280;15375;48.540;9.268;2022-07-22T07:20:31;97638.34;;;28.61;52.75
4814;BME280;15375;48.540;9.268;2022-07-22T07:23:00;97638.16;;;28.90;50.68
4814;BME280;15375;48.540;9.268;2022-07-22T07:25:25;97632.59;;;28.10;53.60
4814;BME280;15375;48.540;9.268;2022-07-22T07:27:54;97613.34;;;26.93;57.97
4814;BME280;15375;48.540;9.268;2022-07-22T07:30:21;97620.66;;;25.98;60.66
4814;BME280;15375;48.540;9.268;2022-07-22T07:32:47;97606.41;;;26.59;59.23
4814;BME280;15375;48.540;9.268;2022-07-22T07:35:12;97597.66;;;26.74;59.61
4814;BME280;15375;48.540;9.268;2022-07-22T07:37:38;97616.84;;;27.29;58.22
4814;BME280;15375;48.540;9.268;2022-07-22T07:40:05;97608.38;;;27.35;58.29
4814;BME280;15375;48.540;9.268;2022-07-22T07:42:30;97598.75;;;27.30;57.61
4814;BME280;15375;48.540;9.268;2022-07-22T07:44:56;97604.56;;;27.86;56.93
4814;BME280;15375;48.540;9.268;2022-07-22T07:47:21;97611.16;;;27.64;57.14
4814;BME280;15375;48.540;9.268;2022-07-22T07:49:48;97616.03;;;27.64;57.58
4814;BME280;15375;48.540;9.268;2022-07-22T07:52:14;97589.06;;;27.61;58.04
4814;BME280;15375;48.540;9.268;2022-07-22T07:54:40;97606.00;;;28.17;55.04
4814;BME280;15375;48.540;9.268;2022-07-22T07:57:07;97599.31;;;27.77;57.88
4814;BME280;15375;48.540;9.268;2022-07-22T07:59:33;97598.72;;;28.08;55.68
4814;BME280;15375;48.540;9.268;2022-07-22T08:01:58;97584.91;;;28.10;56.50
4814;BME280;15375;48.540;9.268;2022-07-22T08:04:25;97608.66;;;27.85;58.41
4814;BME280;15375;48.540;9.268;2022-07-22T08:06:50;97582.34;;;28.50;56.28
4814;BME280;15375;48.540;9.268;2022-07-22T08:09:16;97592.28;;;29.01;54.57
4814;BME280;15375;48.540;9.268;2022-07-22T08:11:41;97603.88;;;29.42;53.13
4814;BME280;15375;48.540;9.268;2022-07-22T08:14:06;97587.97;;;29.00;52.86
4814;BME280;15375;48.540;9.268;2022-07-22T08:16:32;97591.72;;;28.89;55.85
4814;BME280;15375;48.540;9.268;2022-07-22T08:18:57;97582.31;;;28.87;55.12
4814;BME280;15375;48.540;9.268;2022-07-22T08:21:23;97579.03;;;28.70;55.97
4814;BME280;15375;48.540;9.268;2022-07-22T08:23:50;97587.78;;;29.11;55.22
4814;BME280;15375;48.540;9.268;2022-07-22T08:26:16;97585.66;;;29.17;54.25
4814;BME280;15375;48.540;9.268;2022-07-22T08:28:41;97586.00;;;28.63;56.86
4814;BME280;15375;48.540;9.268;2022-07-22T08:31:06;97574.47;;;28.48;55.64
4814;BME280;15375;48.540;9.268;2022-07-22T08:33:32;97574.19;;;28.14;58.70
4814;BME280;15375;48.540;9.268;2022-07-22T08:35:57;97583.09;;;28.87;57.10
4814;BME280;15375;48.540;9.268;2022-07-22T08:38:23;97583.13;;;28.31;57.85
4814;BME280;15375;48.540;9.268;2022-07-22T08:40:48;97566.66;;;28.41;58.62
4814;BME280;15375;48.540;9.268;2022-07-22T08:43:14;97584.00;;;28.77;57.30
4814;BME280;15375;48.540;9.268;2022-07-22T08:45:40;97546.31;;;28.54;57.64
4814;BME280;15375;48.540;9.268;2022-07-22T08:48:06;97562.47;;;28.47;59.68
4814;BME280;15375;48.540;9.268;2022-07-22T08:50:31;97563.69;;;29.16;57.08
4814;BME280;15375;48.540;9.268;2022-07-22T08:52:57;97559.25;;;29.07;54.82
4814;BME280;15375;48.540;9.268;2022-07-22T08:55:23;97575.41;;;29.20;57.65
4814;BME280;15375;48.540;9.268;2022-07-22T08:57:49;97564.06;;;28.93;57.50
4814;BME280;15375;48.540;9.268;2022-07-22T09:00:18;97551.34;;;29.05;57.69
4814;BME280;15375;48.540;9.268;2022-07-22T09:02:44;97552.84;;;29.64;55.18
4814;BME280;15375;48.540;9.268;2022-07-22T09:05:11;97566.69;;;29.36;57.22
4814;BME280;15375;48.540;9.268;2022-07-22T09:07:44;97549.28;;;29.77;55.63
4814;BME280;15375;48.540;9.268;2022-07-22T09:10:13;97555.00;;;29.58;55.06
4814;BME280;15375;48.540;9.268;2022-07-22T09:12:59;97557.72;;;30.03;56.03
4814;BME280;15375;48.540;9.268;2022-07-22T09:17:55;97538.91;;;30.32;52.74
4814;BME280;15375;48.540;9.268;2022-07-22T09:20:24;97541.81;;;30.53;53.33
4814;BME280;15375;48.540;9.268;2022-07-22T09:22:50;97552.22;;;30.45;53.65
4814;BME280;15375;48.540;9.268;2022-07-22T09:27:48;97542.28;;;30.64;53.05
4814;BME280;15375;48.540;9.268;2022-07-22T09:30:16;97514.41;;;30.53;51.11
4814;BME280;15375;48.540;9.268;2022-07-22T09:32:43;97541.63;;;30.92;51.90
4814;BME280;15375;48.540;9.268;2022-07-22T09:35:09;97550.72;;;31.19;52.02
4814;BME280;15375;48.540;9.268;2022-07-22T09:37:58;97521.03;;;30.97;49.95
4814;BME280;15375;48.540;9.268;2022-07-22T09:40:27;97534.97;;;31.03;50.69
4814;BME280;15375;48.540;9.268;2022-07-22T09:42:55;97542.91;;;30.50;52.22
4814;BME280;15375;48.540;9.268;2022-07-22T09:45:23;97535.50;;;30.60;52.01
4814;BME280;15375;48.540;9.268;2022-07-22T09:47:50;97531.53;;;30.76;52.75
4814;BME280;15375;48.540;9.268;2022-07-22T09:50:24;97524.59;;;30.98;53.60
4814;BME280;15375;48.540;9.268;2022-07-22T09:52:51;97507.53;;;31.52;50.23
4814;BME280;15375;48.540;9.268;2022-07-22T09:55:20;97521.31;;;31.35;49.31
4814;BME280;15375;48.540;9.268;2022-07-22T09:57:46;97502.13;;;30.43;52.29
4814;BME280;15375;48.540;9.268;2022-07-22T10:00:13;97505.69;;;30.85;52.61
4814;BME280;15375;48.540;9.268;2022-07-22T10:02:59;97510.84;;;30.53;52.44
4814;BME280;15375;48.540;9.268;2022-07-22T10:05:27;97499.25;;;30.56;51.46
4814;BME280;15375;48.540;9.268;2022-07-22T10:07:54;97476.47;;;30.33;53.16
4814;BME280;15375;48.540;9.268;2022-07-22T10:10:28;97488.25;;;30.45;53.90
4814;BME280;15375;48.540;9.268;2022-07-22T10:12:55;97494.03;;;30.26;53.58
4814;BME280;15375;48.540;9.268;2022-07-22T10:15:23;97499.53;;;30.32;53.36
4814;BME280;15375;48.540;9.268;2022-07-22T10:17:51;97451.63;;;30.86;51.35
4814;BME280;15375;48.540;9.268;2022-07-22T10:20:22;97465.25;;;31.24;50.77
4814;BME280;15375;48.540;9.268;2022-07-22T10:22:51;97484.13;;;31.08;51.00
4814;BME280;15375;48.540;9.268;2022-07-22T10:25:18;97494.00;;;31.50;51.43
4814;BME280;15375;48.540;9.268;2022-07-22T10:30:35;97489.53;;;31.63;48.33
4814;BME280;15375;48.540;9.268;2022-07-22T10:33:14;97479.34;;;31.52;48.80
4814;BME280;15375;48.540;9.268;2022-07-22T10:38:09;97469.06;;;31.62;49.02
4814;BME280;15375;48.540;9.268;2022-07-22T10:41:08;97483.63;;;31.81;49.81
4814;BME280;15375;48.540;9.268;2022-07-22T10:46:06;97459.97;;;31.20;48.46
4814;BME280;15375;48.540;9.268;2022-07-22T10:51:17;97461.72;;;30.82;52.01
4814;BME280;15375;48.540;9.268;2022-07-22T10:53:45;97454.63;;;31.73;49.66
4814;BME280;15375;48.540;9.268;2022-07-22T10:58:47;97457.28;;;31.79;47.50
4814;BME280;15375;48.540;9.268;2022-07-22T11:01:15;97455.94;;;31.72;48.61
4814;BME280;15375;48.540;9.268;2022-07-22T11:03:43;97451.03;;;32.08;48.83
4814;BME280;15375;48.540;9.268;2022-07-22T11:06:18;97429.78;;;32.30;46.93
4814;BME280;15375;48.540;9.268;2022-07-22T11:08:49;97428.13;;;32.35;48.49
4814;BME280;15375;48.540;9.268;2022-07-22T11:11:15;97445.75;;;32.12;47.86
4814;BME280;15375;48.540;9.268;2022-07-22T11:13:42;97440.19;;;32.65;45.19
4814;BME280;15375;48.540;9.268;2022-07-22T11:16:22;97429.78;;;31.64;47.90
4814;BME280;15375;48.540;9.268;2022-07-22T11:18:56;97423.59;;;31.73;48.33
4814;BME280;15375;48.540;9.268;2022-07-22T11:21:23;97439.56;;;32.22;46.09
4814;BME280;15375;48.540;9.268;2022-07-22T11:23:51;97429.91;;;31.94;48.67
4814;BME280;15375;48.540;9.268;2022-07-22T11:26:20;97420.47;;;31.84;46.89
4814;BME280;15375;48.540;9.268;2022-07-22T11:28:48;97419.72;;;31.91;46.75
4814;BME280;15375;48.540;9.268;2022-07-22T11:31:15;97426.38;;;32.09;47.82
4814;BME280;15375;48.540;9.268;2022-07-22T11:33:41;97420.00;;;32.16;46.89
4814;BME280;15375;48.540;9.268;2022-07-22T11:36:08;97423.19;;;32.20;47.92
4814;BME280;15375;48.540;9.268;2022-07-22T11:38:46;97410.59;;;32.29;46.88
4814;BME280;15375;48.540;9.268;2022-07-22T11:41:12;97398.72;;;32.07;46.15
4814;BME280;15375;48.540;9.268;2022-07-22T11:43:49;97390.91;;;31.85;47.00
4814;BME280;15375;48.540;9.268;2022-07-22T11:46:16;97399.47;;;32.08;46.74
4814;BME280;15375;48.540;9.268;2022-07-22T11:48:43;97377.28;;;32.12;45.90
4814;BME280;15375;48.540;9.268;2022-07-22T11:51:11;97405.13;;;32.23;46.11
4814;BME280;15375;48.540;9.268;2022-07-22T11:53:41;97365.78;;;32.02;45.40
4814;BME280;15375;48.540;9.268;2022-07-22T11:56:08;97374.25;;;32.17;45.88
4814;BME280;15375;48.540;9.268;2022-07-22T11:58:35;97374.25;;;32.10;46.45
4814;BME280;15375;48.540;9.268;2022-07-22T12:01:01;97388.00;;;32.13;46.86
4814;BME280;15375;48.540;9.268;2022-07-22T12:03:27;97357.84;;;31.86;47.17
4814;BME280;15375;48.540;9.268;2022-07-22T12:05:54;97360.38;;;32.27;45.98
4814;BME280;15375;48.540;9.268;2022-07-22T12:08:20;97362.63;;;32.21;47.40
4814;BME280;15375;48.540;9.268;2022-07-22T12:10:45;97360.91;;;32.48;46.06
4814;BME280;15375;48.540;9.268;2022-07-22T12:13:11;97324.75;;;31.86;45.70
4814;BME280;15375;48.540;9.268;2022-07-22T12:15:38;97358.84;;;32.26;46.84
4814;BME280;15375;48.540;9.268;2022-07-22T12:18:21;97350.38;;;32.34;47.14
4814;BME280;15375;48.540;9.268;2022-07-22T12:20:48;97373.38;;;32.60;45.78
4814;BME280;15375;48.540;9.268;2022-07-22T12:23:17;97367.34;;;32.79;44.83
4814;BME280;15375;48.540;9.268;2022-07-22T12:25:57;97337.22;;;32.59;43.13
4814;BME280;15375;48.540;9.268;2022-07-22T12:28:23;97324.94;;;31.96;44.99
4814;BME280;15375;48.540;9.268;2022-07-22T12:30:50;97327.44;;;32.37;45.10
4814;BME280;15375;48.540;9.268;2022-07-22T12:33:17;97333.81;;;32.23;43.56
4814;BME280;15375;48.540;9.268;2022-07-22T12:35:44;97335.13;;;32.74;44.13
4814;BME280;15375;48.540;9.268;2022-07-22T12:38:12;97321.53;;;32.80;42.86
4814;BME280;15375;48.540;9.268;2022-07-22T12:40:38;97324.34;;;32.88;43.00
4814;BME280;15375;48.540;9.268;2022-07-22T12:43:06;97329.53;;;32.52;43.60
4814;BME280;15375;48.540;9.268;2022-07-22T12:45:34;97307.28;;;32.48;45.45
4814;BME280;15375;48.540;9.268;2022-07-22T12:50:38;97324.22;;;32.48;43.66
4814;BME280;15375;48.540;9.268;2022-07-22T12:53:16;97305.22;;;32.34;44.75
4814;BME280;15375;48.540;9.268;2022-07-22T12:55:53;97314.47;;;32.57;43.67
4814;BME280;15375;48.540;9.268;2022-07-22T12:58:24;97310.50;;;32.45;44.98
4814;BME280;15375;48.540;9.268;2022-07-22T13:00:55;97298.47;;;32.52;43.17
4814;BME280;15375;48.540;9.268;2022-07-22T13:03:22;97302.56;;;32.51;43.59
4814;BME280;15375;48.540;9.268;2022-07-22T13:05:55;97294.50;;;32.62;44.27
4814;BME280;15375;48.540;9.268;2022-07-22T13:08:22;97299.28;;;33.00;44.48
4814;BME280;15375;48.540;9.268;2022-07-22T13:10:48;97282.00;;;32.80;45.05
4814;BME280;15375;48.540;9.268;2022-07-22T13:13:17;97275.75;;;32.97;43.70
4814;BME280;15375;48.540;9.268;2022-07-22T13:15:42;97284.63;;;32.86;41.99
4814;BME280;15375;48.540;9.268;2022-07-22T13:18:08;97289.56;;;32.70;42.57
4814;BME280;15375;48.540;9.268;2022-07-22T13:20:33;97292.59;;;32.50;43.24
4814;BME280;15375;48.540;9.268;2022-07-22T13:22:59;97292.22;;;32.38;42.87
4814;BME280;15375;48.540;9.268;2022-07-22T13:25:25;97283.75;;;32.61;44.59